Time;durP1;ratioP1;P1;durP2;ratioP2;P2;SDS_P1;SDS_P2;PMS_P1;PMS_P2;Temp;Humidity;BMP_temperature;BMP_pressure;BME280_temperature;BME280_humidity;BME280_pressure;Samples;Min_cycle;Max_cycle;Signal;HPM_P1;HPM_P2
2022/12/04 00:02:22;;;;;;;60.95;27.70;;;1.60;99.90;;;;;;5071672;28;20073;-68
2022/12/04 00:04:48;;;;;;;62.70;28.55;;;1.70;99.90;;;;;;5063177;28;20484;-68
2022/12/04 00:07:14;;;;;;;59.13;28.65;;;1.70;99.90;;;;;;5082843;28;20131;-68
2022/12/04 00:09:39;;;;;;;60.05;27.13;;;1.70;99.90;;;;;;5082033;28;20143;-68
2022/12/04 00:12:05;;;;;;;56.78;29.27;;;1.60;99.90;;;;;;5095461;28;20055;-68
2022/12/04 00:14:31;;;;;;;58.35;27.65;;;1.70;99.90;;;;;;5048595;28;20061;-68
2022/12/04 00:16:57;;;;;;;62.20;28.42;;;1.60;99.90;;;;;;5049268;28;20056;-68
2022/12/04 00:19:23;;;;;;;63.00;27.95;;;1.70;99.90;;;;;;5085439;28;20042;-68
2022/12/04 00:21:49;;;;;;;60.47;29.05;;;1.70;99.90;;;;;;5068794;28;20108;-68
2022/12/04 00:24:15;;;;;;;59.10;26.63;;;1.70;99.90;;;;;;5060217;28;20102;-68
2022/12/04 00:26:41;;;;;;;54.72;26.63;;;1.70;99.90;;;;;;5059066;28;20174;-68
2022/12/04 00:29:07;;;;;;;59.35;28.25;;;1.70;99.90;;;;;;5065224;28;20087;-68
2022/12/04 00:31:33;;;;;;;60.55;27.92;;;1.60;99.90;;;;;;5072926;28;20053;-68
2022/12/04 00:33:59;;;;;;;58.20;29.00;;;1.70;99.90;;;;;;5056992;28;20153;-68
2022/12/04 00:36:27;;;;;;;59.20;28.33;;;1.60;99.90;;;;;;5058829;28;20174;-68
2022/12/04 00:38:53;;;;;;;79.93;37.30;;;1.70;99.90;;;;;;5055154;28;20104;-68
2022/12/04 00:41:24;;;;;;;65.03;30.67;;;1.60;99.90;;;;;;5071623;28;20045;-68
2022/12/04 00:43:50;;;;;;;61.75;31.05;;;1.60;99.90;;;;;;5047008;28;20531;-68
2022/12/04 00:46:16;;;;;;;60.78;28.92;;;1.60;99.90;;;;;;5047684;28;20041;-68
2022/12/04 00:48:42;;;;;;;61.75;29.15;;;1.60;99.90;;;;;;5047405;28;20053;-68
2022/12/04 00:51:14;;;;;;;57.13;27.48;;;1.60;99.90;;;;;;5046714;28;20052;-68
2022/12/04 00:53:40;;;;;;;59.95;29.13;;;1.60;99.90;;;;;;5046694;28;20053;-68
2022/12/04 00:56:09;;;;;;;58.33;28.70;;;1.60;99.90;;;;;;5066642;28;20161;-68
2022/12/04 00:58:35;;;;;;;59.65;29.58;;;1.60;99.90;;;;;;5054660;28;20055;-68
2022/12/04 01:01:15;;;;;;;63.85;30.58;;;1.60;99.90;;;;;;5064026;28;20048;-68
2022/12/04 01:03:41;;;;;;;;;;;1.60;99.90;;;;;;5076675;28;20092;-68
2022/12/04 01:06:20;;;;;;;58.70;27.13;;;1.60;99.90;;;;;;5059994;28;19931;-68
2022/12/04 01:08:46;;;;;;;56.67;28.67;;;1.60;99.90;;;;;;5064724;28;20055;-68
2022/12/04 01:11:12;;;;;;;60.25;28.73;;;1.60;99.90;;;;;;5052122;28;20567;-68
2022/12/04 01:13:37;;;;;;;62.78;29.77;;;1.60;99.90;;;;;;5065788;28;20048;-68
2022/12/04 01:16:03;;;;;;;59.28;28.30;;;1.60;99.90;;;;;;5095358;28;20061;-68
2022/12/04 01:18:29;;;;;;;55.63;27.50;;;1.70;99.90;;;;;;5046316;28;20064;-68
2022/12/04 01:20:55;;;;;;;58.17;28.92;;;1.70;99.90;;;;;;5081426;28;20040;-68
2022/12/04 01:23:20;;;;;;;63.25;30.48;;;1.60;99.90;;;;;;5070828;28;20041;-68
2022/12/04 01:25:54;;;;;;;60.15;29.98;;;1.60;99.90;;;;;;5073489;28;20090;-68
2022/12/04 01:28:20;;;;;;;57.42;28.98;;;1.60;99.90;;;;;;5066308;28;20044;-68
2022/12/04 01:31:02;;;;;;;64.55;30.35;;;1.60;99.90;;;;;;5057159;28;20043;-68
2022/12/04 01:33:29;;;;;;;58.13;28.52;;;1.60;99.90;;;;;;5061378;28;20497;-68
2022/12/04 01:35:56;;;;;;;64.68;30.50;;;1.60;99.90;;;;;;5064321;28;20071;-68
2022/12/04 01:38:23;;;;;;;60.65;29.63;;;1.60;99.90;;;;;;5059194;28;20097;-68
2022/12/04 01:40:49;;;;;;;60.83;29.48;;;1.60;99.90;;;;;;5042933;28;20040;-68
2022/12/04 01:43:16;;;;;;;60.83;28.55;;;1.60;99.90;;;;;;5059276;28;20516;-68
2022/12/04 01:45:48;;;;;;;59.38;30.67;;;1.60;99.90;;;;;;5077316;28;20048;-68
2022/12/04 01:48:32;;;;;;;59.17;30.77;;;1.60;99.90;;;;;;5045497;28;20079;-68
2022/12/04 01:51:20;;;;;;;62.92;32.58;;;1.60;99.90;;;;;;5047300;28;20075;-68
2022/12/04 01:53:50;;;;;;;60.63;30.98;;;1.60;99.90;;;;;;5066861;28;20154;-68
2022/12/04 01:56:18;;;;;;;61.95;31.80;;;1.60;99.90;;;;;;5061036;28;20048;-68
2022/12/04 01:58:49;;;;;;;62.72;31.50;;;1.60;99.90;;;;;;5063664;28;20083;-68
2022/12/04 02:01:15;;;;;;;62.50;29.67;;;1.50;99.90;;;;;;5045534;28;20041;-68
2022/12/04 02:03:41;;;;;;;62.53;32.17;;;1.60;99.90;;;;;;5049167;28;20048;-68
2022/12/04 02:06:07;;;;;;;64.38;30.30;;;1.60;99.90;;;;;;5057100;28;20096;-68
2022/12/04 02:08:34;;;;;;;63.65;30.83;;;1.60;99.90;;;;;;5055411;28;20075;-68
2022/12/04 02:11:08;;;;;;;60.40;29.45;;;1.50;99.90;;;;;;5068931;28;20075;-68
2022/12/04 02:14:06;;;;;;;63.15;30.58;;;1.60;99.90;;;;;;5066206;28;20068;-68
2022/12/04 02:16:41;;;;;;;70.57;33.28;;;1.60;99.90;;;;;;5036313;28;20115;-68
2022/12/04 02:19:29;;;;;;;62.60;32.42;;;1.50;99.90;;;;;;5046564;28;20045;-68
2022/12/04 02:21:56;;;;;;;67.00;32.67;;;1.60;99.90;;;;;;5045527;28;20049;-68
2022/12/04 02:24:22;;;;;;;61.45;30.63;;;1.50;99.90;;;;;;5049795;28;20336;-68
2022/12/04 02:27:15;;;;;;;61.35;29.20;;;1.60;99.90;;;;;;5081881;28;20108;-68
2022/12/04 02:30:03;;;;;;;64.00;31.25;;;1.50;99.90;;;;;;5055465;28;20068;-68
2022/12/04 02:32:41;;;;;;;64.32;31.20;;;1.50;99.90;;;;;;5063597;28;20540;-68
2022/12/04 02:35:38;;;;;;;65.13;31.73;;;1.50;99.90;;;;;;5054281;28;20053;-68
2022/12/04 02:38:25;;;;;;;64.63;32.22;;;1.50;99.90;;;;;;5053769;28;20083;-68
2022/12/04 02:41:14;;;;;;;65.43;33.15;;;1.50;99.90;;;;;;5052225;28;20077;-68
2022/12/04 02:43:44;;;;;;;67.43;32.17;;;1.50;99.90;;;;;;5061470;28;20067;-68
2022/12/04 02:46:33;;;;;;;63.00;32.78;;;1.50;99.90;;;;;;5072401;28;20041;-68
2022/12/04 02:49:02;;;;;;;64.88;32.72;;;1.50;99.90;;;;;;5064498;28;20059;-68
2022/12/04 02:51:34;;;;;;;66.38;31.67;;;1.50;99.90;;;;;;5052603;28;20048;-68
2022/12/04 02:54:08;;;;;;;68.03;34.20;;;1.40;99.90;;;;;;5084141;28;20056;-68
2022/12/04 02:56:39;;;;;;;62.35;32.53;;;1.40;99.90;;;;;;5057084;28;20049;-68
2022/12/04 02:59:15;;;;;;;65.15;31.08;;;1.30;99.90;;;;;;5067193;28;20076;-68
2022/12/04 03:01:46;;;;;;;70.53;33.53;;;1.40;99.90;;;;;;5068028;28;20056;-68
2022/12/04 03:04:25;;;;;;;64.55;31.80;;;1.50;99.90;;;;;;5067287;28;20093;-68
2022/12/04 03:06:56;;;;;;;67.33;32.90;;;1.50;99.90;;;;;;5049272;28;20052;-68
2022/12/04 03:09:34;;;;;;;66.47;33.03;;;1.40;99.90;;;;;;5067722;28;20271;-68
2022/12/04 03:12:13;;;;;;;64.18;33.53;;;1.40;99.90;;;;;;5048668;28;20059;-68
2022/12/04 03:14:44;;;;;;;65.90;32.65;;;1.40;99.90;;;;;;5057561;28;20096;-68
2022/12/04 03:17:23;;;;;;;67.55;34.35;;;1.40;99.90;;;;;;5072961;28;20045;-68
2022/12/04 03:19:54;;;;;;;68.22;33.92;;;1.40;99.90;;;;;;5041827;28;20056;-68
2022/12/04 03:22:22;;;;;;;70.68;35.83;;;1.40;99.90;;;;;;5062537;28;20124;-68
2022/12/04 03:24:51;;;;;;;65.03;32.90;;;1.40;99.90;;;;;;5049011;28;20045;-68
2022/12/04 03:27:50;;;;;;;73.13;35.80;;;1.40;99.90;;;;;;5079554;28;20041;-68
2022/12/04 03:30:18;;;;;;;63.30;32.72;;;1.50;99.90;;;;;;5065425;28;20110;-68
2022/12/04 03:33:04;;;;;;;70.30;33.75;;;1.40;99.90;;;;;;5068038;28;20048;-68
2022/12/04 03:36:11;;;;;;;69.22;32.30;;;1.40;99.90;;;;;;5048715;28;20055;-68
2022/12/04 03:38:49;;;;;;;73.28;33.63;;;1.40;99.90;;;;;;5064813;28;20049;-68
2022/12/04 03:41:38;;;;;;;70.47;34.63;;;1.40;99.90;;;;;;5076969;28;20040;-68
2022/12/04 03:44:14;;;;;;;68.15;33.63;;;1.30;99.90;;;;;;5061909;28;20048;-68
2022/12/04 03:47:05;;;;;;;67.55;32.97;;;1.40;99.90;;;;;;5063494;28;20045;-68
2022/12/04 03:49:56;;;;;;;70.47;34.47;;;1.30;99.90;;;;;;5067931;28;20064;-68
2022/12/04 03:52:28;;;;;;;68.28;33.25;;;1.30;99.90;;;;;;5086769;28;20044;-68
2022/12/04 03:55:19;;;;;;;70.28;33.40;;;1.30;99.90;;;;;;5065117;28;20045;-68
2022/12/04 03:57:48;;;;;;;70.05;33.95;;;1.30;99.90;;;;;;5060434;28;20061;-68
2022/12/04 04:00:17;;;;;;;62.25;32.90;;;1.30;99.90;;;;;;5061707;28;20037;-68
2022/12/04 04:03:06;;;;;;;73.43;35.13;;;1.40;99.90;;;;;;5048967;28;20097;-68
2022/12/04 04:05:33;;;;;;;70.63;33.53;;;1.30;99.90;;;;;;5056197;28;20111;-68
2022/12/04 04:10:53;;;;;;;71.10;33.88;;;1.30;99.90;;;;;;5066460;28;20106;-68
2022/12/04 04:24:30;;;;;;;68.80;33.20;;;1.30;99.90;;;;;;5072468;28;20048;-68
2022/12/04 04:26:57;;;;;;;71.35;34.50;;;1.20;99.90;;;;;;5050623;28;20053;-68
2022/12/04 04:29:25;;;;;;;66.88;33.50;;;1.20;99.90;;;;;;5071606;28;20047;-68
2022/12/04 04:32:19;;;;;;;71.45;33.88;;;1.20;99.90;;;;;;5050371;28;20056;-68
2022/12/04 04:35:05;;;;;;;65.97;33.38;;;1.20;99.90;;;;;;5040586;28;20052;-68
2022/12/04 04:38:04;;;;;;;67.13;32.70;;;1.20;99.90;;;;;;5053362;28;20044;-68
2022/12/04 04:40:48;;;;;;;66.68;32.13;;;1.10;99.90;;;;;;5051664;28;20053;-68
2022/12/04 04:43:27;;;;;;;69.32;33.85;;;1.10;99.90;;;;;;5040673;28;20047;-68
2022/12/04 04:45:59;;;;;;;68.30;33.47;;;1.10;99.90;;;;;;5071586;28;20416;-68
2022/12/04 04:48:35;;;;;;;71.50;34.33;;;1.20;99.90;;;;;;5084902;28;20052;-67
2022/12/04 04:51:03;;;;;;;69.07;32.17;;;1.20;99.90;;;;;;5057937;28;20414;-68
2022/12/04 04:53:35;;;;;;;69.40;33.47;;;1.20;99.90;;;;;;5051316;28;20053;-68
2022/12/04 04:56:01;;;;;;;70.90;34.55;;;1.20;99.90;;;;;;5080214;28;20055;-68
2022/12/04 04:58:27;;;;;;;68.55;34.85;;;1.20;99.90;;;;;;5067955;28;20102;-68
2022/12/04 05:01:02;;;;;;;65.63;34.30;;;1.20;99.90;;;;;;5071206;28;20040;-68
2022/12/04 05:03:28;;;;;;;69.93;32.88;;;1.20;99.90;;;;;;5050400;28;20102;-68
2022/12/04 05:05:54;;;;;;;70.25;33.65;;;1.10;99.90;;;;;;5053512;28;20114;-68
2022/12/04 05:08:21;;;;;;;68.55;35.47;;;1.10;99.90;;;;;;5049620;28;20497;-67
2022/12/04 05:10:46;;;;;;;67.88;32.88;;;1.10;99.90;;;;;;5068078;28;20045;-68
2022/12/04 05:13:13;;;;;;;72.22;34.45;;;1.10;99.90;;;;;;5050477;28;20053;-67
2022/12/04 05:15:39;;;;;;;66.13;32.47;;;1.20;99.90;;;;;;5053576;28;20045;-68
2022/12/04 05:18:05;;;;;;;65.03;32.25;;;1.10;99.90;;;;;;5050721;28;20065;-68
2022/12/04 05:20:31;;;;;;;62.25;31.67;;;1.10;99.90;;;;;;5053620;28;20104;-68
2022/12/04 05:22:56;;;;;;;69.20;34.72;;;1.10;99.90;;;;;;5067637;28;20127;-68
2022/12/04 05:25:22;;;;;;;72.95;34.22;;;1.10;99.90;;;;;;5055401;28;20082;-68
2022/12/04 05:27:48;;;;;;;66.53;33.20;;;1.10;99.90;;;;;;5074036;28;20048;-68
2022/12/04 05:30:14;;;;;;;68.70;33.92;;;1.10;99.90;;;;;;5055281;28;20049;-68
2022/12/04 05:32:39;;;;;;;63.05;31.17;;;1.20;99.90;;;;;;5055228;28;20056;-68
2022/12/04 05:35:07;;;;;;;66.45;31.13;;;1.10;99.90;;;;;;5071588;28;20044;-68
2022/12/04 05:37:36;;;;;;;65.95;32.80;;;1.10;99.90;;;;;;5031437;28;20408;-68
2022/12/04 05:40:03;;;;;;;61.95;31.63;;;1.20;99.90;;;;;;5077376;28;20072;-68
2022/12/04 05:42:28;;;;;;;65.20;31.05;;;1.20;99.90;;;;;;5056929;28;20114;-68
2022/12/04 05:44:54;;;;;;;61.72;31.88;;;1.20;99.90;;;;;;5077172;28;20040;-68
2022/12/04 05:47:20;;;;;;;62.28;30.80;;;1.10;99.90;;;;;;5068810;28;20084;-68
2022/12/04 05:49:45;;;;;;;65.63;32.55;;;1.20;99.90;;;;;;5059990;28;20044;-68
2022/12/04 05:52:11;;;;;;;60.03;29.65;;;1.20;99.90;;;;;;5074991;28;20036;-68
2022/12/04 05:54:37;;;;;;;65.15;32.95;;;1.20;99.90;;;;;;5058740;28;20048;-68
2022/12/04 05:57:03;;;;;;;64.40;31.08;;;1.10;99.90;;;;;;5049308;28;20057;-68
2022/12/04 05:59:28;;;;;;;66.05;32.03;;;1.10;99.90;;;;;;5077556;28;20249;-68
2022/12/04 06:01:54;;;;;;;68.75;33.55;;;1.10;99.90;;;;;;5060397;28;20044;-68
2022/12/04 06:04:20;;;;;;;62.80;30.08;;;1.10;99.90;;;;;;5060405;28;20049;-68
2022/12/04 06:06:46;;;;;;;64.63;32.03;;;1.10;99.90;;;;;;5056274;28;20047;-68
2022/12/04 06:09:12;;;;;;;67.35;32.42;;;1.10;99.90;;;;;;5042384;28;20484;-68
2022/12/04 06:11:40;;;;;;;62.30;31.80;;;1.10;99.90;;;;;;5057777;28;20048;-68
2022/12/04 06:14:08;;;;;;;69.13;32.92;;;1.10;99.90;;;;;;5058691;28;20587;-68
2022/12/04 06:16:36;;;;;;;61.95;31.13;;;1.10;99.90;;;;;;5060435;28;20053;-68
2022/12/04 06:19:16;;;;;;;68.43;32.92;;;1.00;99.90;;;;;;5059971;28;20040;-68
2022/12/04 06:21:43;;;;;;;70.18;32.75;;;1.00;99.90;;;;;;5077897;28;20048;-68
2022/12/04 06:24:15;;;;;;;66.50;31.55;;;1.10;99.90;;;;;;5062799;28;20085;-68
2022/12/04 06:26:41;;;;;;;70.90;32.28;;;1.00;99.90;;;;;;5076924;28;20121;-68
2022/12/04 06:29:09;;;;;;;67.38;32.60;;;1.10;99.90;;;;;;5080490;28;20106;-68
2022/12/04 06:31:36;;;;;;;70.28;32.65;;;1.00;99.90;;;;;;5078486;28;20488;-68
2022/12/04 06:34:03;;;;;;;68.28;32.47;;;1.10;99.90;;;;;;5062208;28;20048;-68
2022/12/04 06:36:29;;;;;;;67.32;31.58;;;1.00;99.90;;;;;;5050204;28;20063;-68
2022/12/04 06:38:56;;;;;;;71.47;34.15;;;1.10;99.90;;;;;;5084790;28;20080;-68
2022/12/04 06:41:23;;;;;;;68.15;32.33;;;1.00;99.90;;;;;;5083410;28;20068;-68
2022/12/04 06:43:50;;;;;;;70.45;33.47;;;1.00;99.90;;;;;;5085816;28;20041;-68
2022/12/04 06:46:19;;;;;;;75.78;34.67;;;1.10;99.90;;;;;;5065891;28;20077;-68
2022/12/04 06:48:45;;;;;;;68.15;33.90;;;1.10;99.90;;;;;;5061138;28;20104;-68
2022/12/04 06:51:14;;;;;;;70.53;32.40;;;1.10;99.90;;;;;;5052104;28;20059;-67
2022/12/04 06:53:40;;;;;;;70.15;33.35;;;1.00;99.90;;;;;;5051683;28;20108;-67
2022/12/04 06:56:09;;;;;;;76.22;34.97;;;1.10;99.90;;;;;;5071568;28;20057;-67
2022/12/04 06:58:35;;;;;;;71.75;33.95;;;1.10;99.90;;;;;;5058571;28;20052;-68
2022/12/04 07:01:10;;;;;;;73.75;33.33;;;1.10;99.90;;;;;;5053180;28;20049;-67
2022/12/04 07:03:37;;;;;;;69.65;32.30;;;1.00;99.90;;;;;;5039952;28;20053;-68
2022/12/04 07:06:20;;;;;;;73.40;32.70;;;1.10;99.90;;;;;;5050997;28;20570;-67
2022/12/04 07:08:49;;;;;;;69.85;31.70;;;1.10;99.90;;;;;;5049957;28;20501;-68
2022/12/04 07:11:15;;;;;;;73.18;33.00;;;1.10;99.90;;;;;;5050080;28;20037;-68
2022/12/04 07:13:41;;;;;;;69.47;34.10;;;1.10;99.90;;;;;;5067388;28;20056;-69
2022/12/04 07:16:12;;;;;;;71.95;34.40;;;1.00;99.90;;;;;;5049435;28;20048;-67
2022/12/04 07:18:37;;;;;;;72.72;32.10;;;1.00;99.90;;;;;;5056646;28;20056;-67
2022/12/04 07:21:05;;;;;;;69.40;33.38;;;1.10;99.90;;;;;;5061623;28;20041;-68
2022/12/04 07:23:30;;;;;;;73.85;33.25;;;1.10;99.90;;;;;;5020923;28;20325;-68
2022/12/04 07:25:56;;;;;;;75.68;35.63;;;1.10;99.90;;;;;;5080538;28;20055;-68
2022/12/04 07:28:22;;;;;;;77.05;34.33;;;1.10;99.90;;;;;;5048643;28;20099;-68
2022/12/04 07:30:47;;;;;;;72.60;32.67;;;1.10;99.90;;;;;;5069603;28;20508;-68
2022/12/04 07:33:13;;;;;;;74.88;34.13;;;1.10;99.90;;;;;;5058647;28;20424;-68
2022/12/04 07:35:39;;;;;;;74.05;35.78;;;1.10;99.90;;;;;;5072352;28;20041;-67
2022/12/04 07:38:04;;;;;;;78.00;35.25;;;1.10;99.90;;;;;;5048431;28;20079;-67
2022/12/04 07:40:30;;;;;;;71.32;32.80;;;1.10;99.90;;;;;;5061188;28;20096;-67
2022/12/04 07:42:56;;;;;;;74.55;33.30;;;1.00;99.90;;;;;;5048799;28;20080;-68
2022/12/04 07:45:24;;;;;;;71.10;32.38;;;1.00;99.90;;;;;;5050776;28;20048;-68
2022/12/04 07:47:50;;;;;;;74.40;34.47;;;1.00;99.90;;;;;;5062774;28;20048;-67
2022/12/04 07:50:16;;;;;;;73.55;34.08;;;1.20;99.90;;;;;;5055055;28;20049;-67
2022/12/04 07:52:41;;;;;;;75.53;33.33;;;1.10;99.90;;;;;;5069187;28;20115;-67
2022/12/04 07:55:08;;;;;;;81.60;36.15;;;1.10;99.90;;;;;;5072215;28;20037;-64
2022/12/04 07:57:33;;;;;;;74.50;34.05;;;1.10;99.90;;;;;;5015728;28;20055;-67
2022/12/04 07:59:59;;;;;;;81.60;35.33;;;1.10;99.90;;;;;;5058439;28;20053;-66
2022/12/04 08:02:26;;;;;;;70.13;33.00;;;1.00;99.90;;;;;;5082494;28;20045;-67
2022/12/04 08:04:51;;;;;;;72.93;34.58;;;1.10;99.90;;;;;;5051234;28;20049;-67
2022/12/04 08:07:17;;;;;;;70.80;32.25;;;1.10;99.90;;;;;;5045452;28;20517;-66
2022/12/04 08:09:43;;;;;;;76.80;34.78;;;1.10;99.90;;;;;;5063390;28;20105;-67
2022/12/04 08:12:09;;;;;;;71.35;33.60;;;1.10;99.90;;;;;;5036545;28;20605;-68
2022/12/04 08:14:35;;;;;;;74.18;33.90;;;1.10;99.90;;;;;;5042298;28;20248;-72
2022/12/04 08:17:00;;;;;;;73.55;35.22;;;1.10;99.90;;;;;;5047561;28;20057;-68
2022/12/04 08:19:26;;;;;;;72.53;33.38;;;1.10;99.90;;;;;;5046920;28;20056;-68
2022/12/04 08:21:53;;;;;;;75.32;33.72;;;1.10;99.90;;;;;;5043004;28;20044;-69
2022/12/04 08:24:19;;;;;;;75.38;34.08;;;1.10;99.90;;;;;;5063809;28;20049;-69
2022/12/04 08:26:45;;;;;;;74.22;33.63;;;1.20;99.90;;;;;;5044642;28;20548;-69
2022/12/04 08:29:11;;;;;;;70.07;32.10;;;1.10;99.90;;;;;;5060116;28;20057;-68
2022/12/04 08:31:37;;;;;;;73.45;32.95;;;1.20;99.90;;;;;;5030008;28;20532;-70
2022/12/04 08:34:05;;;;;;;78.05;35.45;;;1.20;99.90;;;;;;5042385;28;20122;-68
2022/12/04 08:36:31;;;;;;;75.47;35.35;;;1.20;99.90;;;;;;5033998;28;20088;-69
2022/12/04 08:38:58;;;;;;;74.47;35.20;;;1.20;99.90;;;;;;5032854;28;20045;-68
2022/12/04 08:41:25;;;;;;;70.03;32.10;;;1.20;99.90;;;;;;5018923;28;20079;-68
2022/12/04 08:43:53;;;;;;;72.38;32.13;;;1.20;99.90;;;;;;5029225;28;20045;-68
2022/12/04 08:46:19;;;;;;;74.45;32.92;;;1.20;99.90;;;;;;5055799;28;20037;-68
2022/12/04 08:48:46;;;;;;;74.95;34.50;;;1.20;99.90;;;;;;5046638;28;20051;-67
2022/12/04 08:51:18;;;;;;;76.78;34.78;;;1.20;99.90;;;;;;5035018;28;20030;-67
2022/12/04 08:53:44;;;;;;;72.13;33.78;;;1.20;99.90;;;;;;5033548;28;20060;-68
2022/12/04 08:56:10;;;;;;;73.38;32.88;;;1.30;99.90;;;;;;5025331;28;20046;-69
2022/12/04 08:58:36;;;;;;;74.93;33.25;;;1.30;99.90;;;;;;5024432;28;20178;-67
2022/12/04 09:01:11;;;;;;;68.43;33.00;;;1.30;99.90;;;;;;5068057;28;20124;-67
2022/12/04 09:03:37;;;;;;;72.03;32.97;;;1.30;99.90;;;;;;5036524;28;20056;-68
2022/12/04 09:06:04;;;;;;;70.97;34.58;;;1.30;99.90;;;;;;5042883;28;20087;-68
2022/12/04 09:08:31;;;;;;;70.40;32.55;;;1.40;99.90;;;;;;5036912;28;20048;-68
2022/12/04 09:11:12;;;;;;;72.47;33.47;;;1.40;99.90;;;;;;5077758;28;20421;-68
2022/12/04 09:13:39;;;;;;;72.13;32.72;;;1.40;99.90;;;;;;5059887;28;20047;-68
2022/12/04 09:16:19;;;;;;;74.57;36.83;;;1.40;99.90;;;;;;5092016;27;1956406;-63
2022/12/04 09:18:46;;;;;;;68.53;33.03;;;1.40;99.90;;;;;;5110581;27;20080;-63
2022/12/04 09:21:14;;;;;;;67.78;33.47;;;1.40;99.90;;;;;;5076047;28;20113;-65
2022/12/04 09:23:40;;;;;;;69.22;32.15;;;1.50;99.90;;;;;;5082046;28;20052;-65
2022/12/04 09:26:20;;;;;;;71.05;31.95;;;1.50;99.90;;;;;;5088373;28;20036;-68
2022/12/04 09:28:47;;;;;;;65.38;31.17;;;1.50;99.90;;;;;;5090886;28;20032;-66
2022/12/04 09:31:13;;;;;;;64.47;31.42;;;1.50;99.90;;;;;;5078938;28;20052;-66
2022/12/04 09:33:39;;;;;;;65.15;32.30;;;1.60;99.90;;;;;;5078087;28;20049;-66
2022/12/04 09:36:05;;;;;;;62.40;31.52;;;1.50;99.90;;;;;;5082515;28;20066;-66
2022/12/04 09:38:31;;;;;;;67.57;32.47;;;1.60;99.90;;;;;;5062784;28;20040;-66
2022/12/04 09:41:02;;;;;;;67.20;32.08;;;1.60;99.90;;;;;;5083642;28;20090;-65
2022/12/04 09:44:12;;;;;;;63.15;31.92;;;1.60;99.90;;;;;;5082273;28;20291;-65
2022/12/04 09:46:57;;;;;;;65.18;29.38;;;1.60;99.90;;;;;;5091892;28;20069;-66
2022/12/04 09:49:27;;;;;;;69.93;34.20;;;1.60;99.90;;;;;;5077222;28;20131;-66
2022/12/04 09:51:57;;;;;;;68.15;33.58;;;1.80;99.90;;;;;;5087301;28;20128;-69
2022/12/04 09:54:29;;;;;;;64.70;33.53;;;1.70;99.90;;;;;;5080601;28;20048;-71
2022/12/04 09:57:01;;;;;;;64.82;32.00;;;1.70;99.90;;;;;;5087587;28;20075;-68
2022/12/04 09:59:30;;;;;;;62.00;31.17;;;1.70;99.90;;;;;;5100023;28;20521;-68
2022/12/04 10:02:19;;;;;;;64.93;32.42;;;1.70;99.90;;;;;;5092022;28;20051;-67
2022/12/04 10:04:45;;;;;;;65.45;32.33;;;1.70;99.90;;;;;;5082216;28;20113;-67
2022/12/04 10:07:21;;;;;;;62.22;31.05;;;1.70;99.90;;;;;;5089946;28;20036;-67
2022/12/04 10:09:58;;;;;;;68.97;33.20;;;1.70;99.90;;;;;;5099482;28;20048;-67
2022/12/04 10:12:35;;;;;;;61.50;30.30;;;1.70;99.90;;;;;;5092768;28;20101;-69
2022/12/04 10:15:16;;;;;;;64.68;31.15;;;1.80;99.90;;;;;;5083831;28;20109;-66
2022/12/04 10:17:54;;;;;;;;;;;1.90;99.90;;;;;;5091104;28;20339;-65
2022/12/04 10:20:44;;;;;;;58.75;29.20;;;1.90;99.90;;;;;;5071838;28;19949;-65
2022/12/04 10:23:34;;;;;;;53.25;27.25;;;1.90;99.90;;;;;;5109481;28;20052;-65
2022/12/04 10:26:01;;;;;;;;;;;1.90;99.90;;;;;;5079209;28;20055;-67
2022/12/04 10:28:35;;;;;;;52.20;27.85;;;1.90;99.90;;;;;;5087217;28;19924;-66
2022/12/04 10:31:04;;;;;;;58.00;26.55;;;2.00;99.90;;;;;;5068137;28;20056;-66
2022/12/04 10:33:40;;;;;;;55.60;27.25;;;2.00;99.90;;;;;;5061892;28;20075;-65
2022/12/04 10:36:10;;;;;;;50.30;26.88;;;2.00;99.90;;;;;;5054644;28;20082;-66
2022/12/04 10:39:05;;;;;;;60.72;31.45;;;2.00;99.90;;;;;;5070161;28;20044;-68
2022/12/04 10:41:57;;;;;;;72.53;37.17;;;2.00;99.90;;;;;;5057047;28;20063;-66
2022/12/04 10:44:23;;;;;;;50.65;25.77;;;2.10;99.90;;;;;;5071685;28;20040;-68
2022/12/04 10:46:53;;;;;;;48.92;26.45;;;2.10;99.90;;;;;;5054204;28;20095;-72
2022/12/04 10:49:23;;;;;;;49.90;26.55;;;2.20;99.90;;;;;;5054130;28;20053;-67
2022/12/04 10:51:49;;;;;;;48.33;25.27;;;2.20;99.90;;;;;;5067897;28;20055;-67
2022/12/04 10:54:32;;;;;;;41.20;23.20;;;2.20;99.90;;;;;;5059032;28;20083;-67
2022/12/04 10:57:00;;;;;;;42.03;22.27;;;2.30;99.90;;;;;;5050938;28;20056;-68
2022/12/04 10:59:27;;;;;;;44.50;23.35;;;2.30;99.90;;;;;;5061558;28;20056;-67
2022/12/04 11:02:11;;;;;;;43.50;23.45;;;2.30;99.90;;;;;;5038682;28;20075;-71
2022/12/04 11:04:37;;;;;;;45.95;22.67;;;2.30;99.90;;;;;;5047509;28;20056;-67
2022/12/04 11:07:07;;;;;;;44.03;23.13;;;2.30;99.90;;;;;;5054242;28;20037;-67
2022/12/04 11:09:32;;;;;;;;;;;2.50;99.90;;;;;;5053763;28;20059;-67
2022/12/04 11:12:17;;;;;;;42.80;22.80;;;2.40;99.90;;;;;;5066493;28;20035;-69
2022/12/04 11:14:43;;;;;;;48.00;24.30;;;2.40;99.90;;;;;;5055859;28;20051;-67
2022/12/04 11:17:15;;;;;;;41.63;23.55;;;2.40;99.90;;;;;;5065773;28;20109;-66
2022/12/04 11:19:41;;;;;;;43.83;24.38;;;2.50;99.90;;;;;;5048185;28;20044;-66
2022/12/04 11:22:17;;;;;;;41.97;23.08;;;2.50;99.90;;;;;;5077048;28;20113;-67
2022/12/04 11:24:51;;;;;;;45.65;23.77;;;2.40;99.90;;;;;;5066610;28;20064;-67
2022/12/04 11:27:31;;;;;;;42.45;22.77;;;2.40;99.90;;;;;;5071728;28;20047;-67
2022/12/04 11:30:00;;;;;;;45.13;23.92;;;2.40;99.90;;;;;;5056778;28;20116;-67
2022/12/04 11:32:29;;;;;;;47.30;24.77;;;2.50;99.90;;;;;;5063562;28;20071;-67
2022/12/04 11:35:18;;;;;;;43.15;23.55;;;2.50;99.90;;;;;;5073289;28;20055;-68
2022/12/04 11:38:01;;;;;;;40.15;22.00;;;2.40;99.90;;;;;;5066192;28;20099;-69
2022/12/04 11:40:27;;;;;;;40.40;21.88;;;2.50;99.90;;;;;;5066795;28;20044;-68
2022/12/04 11:43:18;;;;;;;41.42;21.50;;;2.50;99.90;;;;;;5085503;28;20055;-68
2022/12/04 11:46:05;;;;;;;41.58;22.55;;;2.50;99.90;;;;;;5061246;28;20056;-69
2022/12/04 11:48:43;;;;;;;38.25;20.92;;;2.60;99.90;;;;;;5071955;28;20449;-70
2022/12/04 11:51:09;;;;;;;42.22;21.98;;;2.60;99.90;;;;;;5074492;28;20055;-70
2022/12/04 11:53:53;;;;;;;44.13;23.08;;;2.50;99.90;;;;;;5054376;28;20045;-70
2022/12/04 11:56:35;;;;;;;43.10;22.15;;;2.50;99.90;;;;;;5046769;28;20139;-70
2022/12/04 11:59:30;;;;;;;39.10;21.48;;;2.50;99.90;;;;;;5059347;28;20037;-70
2022/12/04 12:02:16;;;;;;;43.65;23.77;;;2.50;99.90;;;;;;5057116;28;20040;-70
2022/12/04 12:04:56;;;;;;;37.72;21.10;;;2.50;99.90;;;;;;5058082;28;20052;-71
2022/12/04 12:08:01;;;;;;;42.38;21.75;;;2.50;99.90;;;;;;5048005;28;20045;-69
2022/12/04 12:10:42;;;;;;;42.42;22.88;;;2.60;99.90;;;;;;5060543;28;20045;-69
2022/12/04 12:13:44;;;;;;;41.67;21.65;;;2.60;99.90;;;;;;5058601;28;20052;-70
2022/12/04 12:16:27;;;;;;;37.10;20.65;;;2.50;99.90;;;;;;5059688;28;20048;-68
2022/12/04 12:19:30;;;;;;;39.10;20.83;;;2.60;99.90;;;;;;5078096;28;20044;-73
2022/12/04 12:22:25;;;;;;;38.45;21.58;;;2.60;99.90;;;;;;5048008;28;20067;-74
2022/12/04 12:24:50;;;;;;;38.15;21.30;;;2.60;99.90;;;;;;5061120;28;20142;-68
2022/12/04 12:27:55;;;;;;;38.25;20.80;;;2.70;99.90;;;;;;5067032;28;20060;-68
2022/12/04 12:30:23;;;;;;;36.67;20.30;;;2.70;99.90;;;;;;5062567;28;20095;-68
2022/12/04 12:33:23;;;;;;;36.97;20.23;;;2.60;99.90;;;;;;5072015;28;20052;-70
2022/12/04 12:36:23;;;;;;;35.85;19.73;;;2.70;99.90;;;;;;5056872;28;20048;-68
2022/12/04 12:39:24;;;;;;;39.33;21.77;;;2.70;99.90;;;;;;4999887;28;20053;-69
2022/12/04 12:41:53;;;;;;;40.83;20.92;;;2.70;99.90;;;;;;4969952;28;20073;-68
2022/12/04 12:44:33;;;;;;;35.35;20.08;;;2.70;99.90;;;;;;4987225;28;20054;-68
2022/12/04 12:47:13;;;;;;;33.92;18.98;;;2.70;99.90;;;;;;4987942;28;20054;-69
2022/12/04 12:50:00;;;;;;;38.20;20.98;;;2.80;99.90;;;;;;4989079;28;20455;-68
2022/12/04 12:52:26;;;;;;;37.80;20.23;;;2.80;99.90;;;;;;4997100;28;20076;-68
2022/12/04 12:55:01;;;;;;;36.58;20.73;;;2.80;99.90;;;;;;4998840;28;20074;-69
2022/12/04 12:57:37;;;;;;;38.90;19.23;;;2.80;99.90;;;;;;4964536;28;20054;-68
2022/12/04 13:00:16;;;;;;;45.45;23.27;;;2.80;99.90;;;;;;4987769;28;20058;-68
2022/12/04 13:03:04;;;;;;;37.92;20.02;;;2.80;99.90;;;;;;4980711;28;20060;-67
2022/12/04 13:05:38;;;;;;;38.33;20.17;;;2.90;99.90;;;;;;4974572;28;20118;-67
2022/12/04 13:08:28;;;;;;;38.25;21.17;;;2.80;99.90;;;;;;4980366;28;20082;-69
2022/12/04 13:11:14;;;;;;;35.53;19.40;;;2.70;99.90;;;;;;4992571;28;20085;-68
2022/12/04 13:13:48;;;;;;;38.60;21.48;;;2.90;99.90;;;;;;4999055;28;20060;-67
2022/12/04 13:16:23;;;;;;;40.10;21.52;;;2.80;99.90;;;;;;5062804;28;20512;-67
2022/12/04 13:18:51;;;;;;;40.05;22.45;;;2.80;99.90;;;;;;5074768;28;20085;-68
2022/12/04 13:21:46;;;;;;;43.38;20.73;;;2.80;99.90;;;;;;5036080;28;20183;-67